createdAt,value
2023-12-07T00:00:27.626Z,0.23
2023-12-07T00:02:55.389Z,0.24
2023-12-07T00:05:23.550Z,0.30
2023-12-07T00:07:51.406Z,0.28
2023-12-07T00:10:19.248Z,0.34
2023-12-07T00:12:47.599Z,0.23
2023-12-07T00:15:15.397Z,0.22
2023-12-07T00:17:44.608Z,0.18
2023-12-07T00:20:13.662Z,0.12
2023-12-07T00:22:42.718Z,0.22
2023-12-07T00:25:10.531Z,0.21
2023-12-07T00:27:38.970Z,0.18
2023-12-07T00:30:07.585Z,0.17
2023-12-07T00:32:35.322Z,0.18
2023-12-07T00:35:05.245Z,0.18
2023-12-07T00:37:33.027Z,0.18
2023-12-07T00:40:01.462Z,0.18
2023-12-07T00:42:29.439Z,0.18
2023-12-07T00:44:57.573Z,0.19
2023-12-07T00:47:25.810Z,0.17
2023-12-07T00:49:53.541Z,0.11
2023-12-07T00:52:23.516Z,0.14
2023-12-07T00:54:51.391Z,0.17
2023-12-07T00:57:19.069Z,0.21
2023-12-07T00:59:47.450Z,0.22
2023-12-07T01:02:15.131Z,0.20
2023-12-07T01:04:42.950Z,0.16
2023-12-07T01:07:11.124Z,0.14
2023-12-07T01:09:40.263Z,0.17
2023-12-07T01:12:08.247Z,0.23
2023-12-07T01:14:36.338Z,0.24
2023-12-07T01:17:04.483Z,0.28
2023-12-07T01:19:32.284Z,0.31
2023-12-07T01:22:00.346Z,0.27
2023-12-07T01:24:28.278Z,0.24
2023-12-07T01:26:57.849Z,0.20
2023-12-07T01:29:25.648Z,0.26
2023-12-07T01:31:53.724Z,0.22
2023-12-07T01:34:22.011Z,0.18
2023-12-07T01:36:50.410Z,0.16
2023-12-07T01:39:18.554Z,0.17
2023-12-07T01:41:46.297Z,0.20
2023-12-07T01:44:15.396Z,0.25
2023-12-07T01:46:44.092Z,0.25
2023-12-07T01:49:12.356Z,0.20
2023-12-07T01:51:40.482Z,0.18
2023-12-07T01:54:08.681Z,0.21
2023-12-07T01:56:36.899Z,0.27
2023-12-07T01:59:04.838Z,0.38
2023-12-07T02:01:34.613Z,0.36
2023-12-07T02:04:02.445Z,0.30
2023-12-07T02:06:30.300Z,0.23
2023-12-07T02:08:58.418Z,0.30
2023-12-07T02:30:16.796Z,0.17
2023-12-07T02:32:46.951Z,0.20
2023-12-07T02:35:15.276Z,0.16
2023-12-07T02:37:46.745Z,0.19
2023-12-07T02:40:16.455Z,0.20
2023-12-07T02:42:45.319Z,0.21
2023-12-07T02:45:15.288Z,0.23
2023-12-07T02:47:44.580Z,0.19
2023-12-07T02:50:12.596Z,0.22
2023-12-07T02:52:40.913Z,0.20
2023-12-07T02:55:10.236Z,0.20
2023-12-07T02:57:38.298Z,0.27
2023-12-07T03:00:09.153Z,0.31
2023-12-07T03:02:39.295Z,0.21
2023-12-07T03:05:08.828Z,0.20
2023-12-07T03:07:36.700Z,0.17
2023-12-07T03:10:05.181Z,0.17
2023-12-07T03:12:33.365Z,0.16
2023-12-07T03:15:01.037Z,0.20
2023-12-07T03:17:28.802Z,0.23
2023-12-07T03:19:58.288Z,0.21
2023-12-07T03:22:26.702Z,0.20
2023-12-07T03:24:55.080Z,0.19
2023-12-07T03:27:23.303Z,0.25
2023-12-07T03:29:52.390Z,0.22
2023-12-07T03:32:20.127Z,0.18
2023-12-07T03:34:48.206Z,0.19
2023-12-07T03:37:17.480Z,0.18
2023-12-07T03:39:45.660Z,0.18
2023-12-07T03:42:48.735Z,0.17
2023-12-07T03:45:01.535Z,0.14
2023-12-07T03:47:29.458Z,0.16
2023-12-07T03:49:57.547Z,0.17
2023-12-07T03:52:26.982Z,0.19
2023-12-07T03:54:54.940Z,0.20
2023-12-07T03:57:23.186Z,0.24
2023-12-07T03:59:50.824Z,0.28
2023-12-07T04:02:18.627Z,0.29
2023-12-07T04:04:46.857Z,0.22
2023-12-07T04:07:14.649Z,0.25
2023-12-07T04:09:44.286Z,0.22
2023-12-07T04:12:12.498Z,0.21
2023-12-07T04:14:40.327Z,0.19
2023-12-07T04:17:08.354Z,0.22
2023-12-07T04:19:36.519Z,0.24
2023-12-07T04:22:04.365Z,0.27
2023-12-07T04:24:32.024Z,0.23
2023-12-07T04:27:01.543Z,0.22
2023-12-07T04:29:29.308Z,0.22
2023-12-07T04:31:57.117Z,0.14
2023-12-07T04:34:25.758Z,0.13
2023-12-07T04:36:53.503Z,0.14
2023-12-07T04:39:21.209Z,0.18
2023-12-07T04:41:49.268Z,0.19
2023-12-07T04:44:18.310Z,0.21
2023-12-07T04:46:46.076Z,0.18
2023-12-07T04:49:14.222Z,0.23
2023-12-07T04:51:43.181Z,0.30
2023-12-07T04:54:16.808Z,0.27
2023-12-07T04:56:47.735Z,0.25
2023-12-07T04:59:15.772Z,0.30
2023-12-07T05:01:45.110Z,0.27
2023-12-07T05:04:12.935Z,0.29
2023-12-07T05:06:41.225Z,0.23
2023-12-07T05:09:10.513Z,0.26
2023-12-07T05:11:38.808Z,0.31
2023-12-07T05:14:07.423Z,0.37
2023-12-07T05:16:35.295Z,0.35
2023-12-07T05:19:04.807Z,0.31
2023-12-07T05:21:33.060Z,0.28
2023-12-07T05:24:00.827Z,0.28
2023-12-07T05:26:28.906Z,0.35
2023-12-07T05:28:56.610Z,0.34
2023-12-07T05:31:24.359Z,0.27
2023-12-07T05:33:52.652Z,0.27
2023-12-07T05:36:21.767Z,0.25
2023-12-07T05:38:49.484Z,0.25
2023-12-07T05:41:17.746Z,0.24
2023-12-07T05:43:45.752Z,0.24
2023-12-07T05:46:13.585Z,0.24
2023-12-07T05:48:41.899Z,0.25
2023-12-07T05:51:14.733Z,0.29
2023-12-07T05:53:44.331Z,0.30
2023-12-07T05:56:12.559Z,0.28
2023-12-07T05:58:40.644Z,0.28
2023-12-07T06:01:09.474Z,0.24
2023-12-07T06:03:37.561Z,0.20
2023-12-07T06:06:06.255Z,0.22
2023-12-07T06:08:34.554Z,0.23
2023-12-07T06:11:03.846Z,0.24
2023-12-07T06:13:32.155Z,0.20
2023-12-07T06:16:00.947Z,0.20
2023-12-07T06:18:28.814Z,0.20
2023-12-07T06:20:56.875Z,0.21
2023-12-07T06:23:25.070Z,0.22
2023-12-07T06:25:52.815Z,0.23
2023-12-07T06:28:21.907Z,0.27
2023-12-07T06:30:50.012Z,0.39
2023-12-07T06:33:18.010Z,0.40
2023-12-07T06:35:47.617Z,0.35
2023-12-07T06:38:15.735Z,0.35
2023-12-07T06:40:44.721Z,0.36
2023-12-07T06:43:12.573Z,0.37
2023-12-07T06:45:42.085Z,0.39
2023-12-07T06:48:09.985Z,0.39
2023-12-07T06:50:38.291Z,0.40
2023-12-07T06:53:06.082Z,0.41
2023-12-07T06:55:36.938Z,0.39
2023-12-07T06:58:06.190Z,0.39
2023-12-07T07:00:34.877Z,0.42
2023-12-07T07:03:04.174Z,0.40
2023-12-07T07:05:32.228Z,0.48
2023-12-07T07:07:59.956Z,0.40
2023-12-07T07:10:27.732Z,0.35
2023-12-07T07:12:55.755Z,0.34
2023-12-07T07:15:25.412Z,0.32
2023-12-07T07:17:53.559Z,0.34
2023-12-07T07:20:23.519Z,0.32
2023-12-07T07:22:51.245Z,0.32
2023-12-07T07:25:20.600Z,0.32
2023-12-07T07:27:48.755Z,0.32
2023-12-07T07:30:16.759Z,0.33
2023-12-07T07:32:44.993Z,0.36
2023-12-07T07:35:13.708Z,0.36
2023-12-07T07:37:43.516Z,0.36
2023-12-07T07:40:12.843Z,0.32
2023-12-07T07:42:41.851Z,0.33
2023-12-07T07:45:10.910Z,0.35
2023-12-07T07:47:38.731Z,0.35
2023-12-07T07:50:07.870Z,0.37
2023-12-07T07:52:35.939Z,0.39
2023-12-07T07:55:06.229Z,0.38
2023-12-07T07:57:34.478Z,0.46
2023-12-07T08:00:02.315Z,0.40
2023-12-07T08:02:30.008Z,0.47
2023-12-07T08:04:58.337Z,0.50
2023-12-07T08:07:26.634Z,0.51
2023-12-07T08:09:55.127Z,0.51
2023-12-07T08:12:25.130Z,0.52
2023-12-07T08:14:53.028Z,0.52
2023-12-07T08:17:22.350Z,0.51
2023-12-07T08:19:50.885Z,0.53
2023-12-07T08:22:18.797Z,0.59
2023-12-07T08:24:52.490Z,0.55
2023-12-07T08:27:27.223Z,0.69
2023-12-07T08:29:55.151Z,0.63
2023-12-07T08:32:22.852Z,0.64
2023-12-07T08:34:51.031Z,0.77
2023-12-07T08:37:18.775Z,0.63
2023-12-07T08:39:46.463Z,0.60
2023-12-07T08:42:14.698Z,0.71
2023-12-07T08:44:45.490Z,0.70
2023-12-07T08:47:13.283Z,0.66
2023-12-07T08:49:41.331Z,0.71
2023-12-07T08:52:22.358Z,0.67
2023-12-07T08:54:57.411Z,0.67
2023-12-07T08:57:25.275Z,0.65
2023-12-07T08:59:55.864Z,0.62
2023-12-07T09:02:33.248Z,0.59
2023-12-07T09:05:11.107Z,0.70
2023-12-07T09:07:39.299Z,0.67
2023-12-07T09:10:08.030Z,0.71
2023-12-07T09:12:38.895Z,0.67
2023-12-07T09:15:11.834Z,0.69
2023-12-07T09:17:40.211Z,0.63
2023-12-07T09:20:14.493Z,0.61
2023-12-07T09:22:44.550Z,0.62
2023-12-07T09:25:12.707Z,0.66
2023-12-07T09:27:41.347Z,0.71
2023-12-07T09:30:13.506Z,0.68
2023-12-07T09:32:45.449Z,0.74
2023-12-07T09:35:16.728Z,0.83
2023-12-07T09:37:46.068Z,0.79
2023-12-07T09:40:18.945Z,0.83
2023-12-07T09:42:47.468Z,0.88
2023-12-07T09:45:19.443Z,0.89
2023-12-07T09:47:50.539Z,0.82
2023-12-07T09:50:19.951Z,0.87
2023-12-07T09:52:56.859Z,0.92
2023-12-07T09:55:33.174Z,0.90
2023-12-07T09:58:01.912Z,0.95
2023-12-07T10:00:31.137Z,0.95
2023-12-07T10:02:58.995Z,0.96
2023-12-07T10:05:28.005Z,1.04
2023-12-07T10:07:55.964Z,0.94
2023-12-07T10:10:24.113Z,0.85
2023-12-07T10:12:53.527Z,1.00
2023-12-07T10:15:22.685Z,0.88
2023-12-07T10:17:54.035Z,0.94
2023-12-07T10:20:24.927Z,1.00
2023-12-07T10:23:04.157Z,1.00
2023-12-07T10:25:31.899Z,0.95
2023-12-07T10:27:59.652Z,0.95
2023-12-07T10:30:29.709Z,0.92
2023-12-07T10:32:58.943Z,0.83
2023-12-07T10:35:26.961Z,0.84
2023-12-07T10:37:55.181Z,0.80
2023-12-07T10:40:22.931Z,0.82
2023-12-07T10:42:51.101Z,0.91
2023-12-07T10:45:19.782Z,1.02
2023-12-07T10:47:48.290Z,1.02
2023-12-07T10:50:25.386Z,0.94
2023-12-07T10:52:55.679Z,0.99
2023-12-07T10:55:30.469Z,0.97
2023-12-07T10:57:58.398Z,0.92
2023-12-07T11:00:37.426Z,0.90
2023-12-07T11:03:13.381Z,0.93
2023-12-07T11:05:43.151Z,0.95
2023-12-07T11:08:16.758Z,0.94
2023-12-07T11:10:50.236Z,0.95
2023-12-07T11:13:22.918Z,0.87
2023-12-07T11:15:50.775Z,0.88
2023-12-07T11:18:18.577Z,0.94
2023-12-07T11:20:49.042Z,0.93
2023-12-07T11:23:18.254Z,0.99
2023-12-07T11:25:46.557Z,0.90
2023-12-07T11:28:15.756Z,0.91
2023-12-07T11:30:45.260Z,0.93
2023-12-07T11:33:13.592Z,0.96
2023-12-07T11:36:08.534Z,0.94
2023-12-07T11:38:38.461Z,0.93
2023-12-07T11:41:06.534Z,1.03
2023-12-07T11:43:47.812Z,1.08
2023-12-07T11:46:18.642Z,1.03
2023-12-07T11:48:48.776Z,1.16
2023-12-07T11:51:18.951Z,1.11
2023-12-07T11:53:46.645Z,1.17
2023-12-07T11:56:15.085Z,1.26
2023-12-07T11:58:43.367Z,1.32
2023-12-07T12:01:11.434Z,1.38
2023-12-07T12:03:39.992Z,1.24
2023-12-07T12:06:11.284Z,1.16
2023-12-07T12:08:42.844Z,1.12
2023-12-07T12:11:10.671Z,1.23
2023-12-07T12:13:39.526Z,1.29
2023-12-07T12:16:09.395Z,1.32
2023-12-07T12:18:37.531Z,1.15
2023-12-07T12:21:06.044Z,1.24
2023-12-07T12:23:34.171Z,1.25
2023-12-07T12:26:03.946Z,1.19
2023-12-07T12:28:33.655Z,1.13
2023-12-07T12:31:02.409Z,1.11
2023-12-07T12:33:30.174Z,1.19
2023-12-07T12:36:09.177Z,1.18
2023-12-07T12:38:42.753Z,1.17
2023-12-07T12:41:14.778Z,1.09
2023-12-07T12:43:43.743Z,1.19
2023-12-07T12:46:12.942Z,1.20
2023-12-07T12:48:55.216Z,1.12
2023-12-07T12:51:23.636Z,1.19
2023-12-07T12:53:52.954Z,1.10
2023-12-07T12:56:23.968Z,1.08
2023-12-07T12:58:52.537Z,1.12
2023-12-07T13:01:21.915Z,1.14
2023-12-07T13:03:50.794Z,1.17
2023-12-07T13:06:19.733Z,1.14
2023-12-07T13:08:49.388Z,1.02
2023-12-07T13:11:18.330Z,1.09
2023-12-07T13:13:49.381Z,1.02
2023-12-07T13:16:17.999Z,0.98
2023-12-07T13:18:46.538Z,0.99
2023-12-07T13:21:16.724Z,1.03
2023-12-07T13:23:47.982Z,0.97
2023-12-07T13:26:15.946Z,1.00
2023-12-07T13:28:43.799Z,0.99
2023-12-07T13:31:13.562Z,1.00
2023-12-07T13:33:49.774Z,1.09
2023-12-07T13:36:23.698Z,1.03
2023-12-07T13:38:52.074Z,1.06
2023-12-07T13:41:20.609Z,1.06
2023-12-07T13:43:50.307Z,1.14
2023-12-07T13:46:20.181Z,1.05
2023-12-07T13:48:50.586Z,1.02
2023-12-07T13:51:18.323Z,1.10
2023-12-07T13:53:46.024Z,1.08
2023-12-07T13:56:13.986Z,1.05
2023-12-07T13:58:41.801Z,1.06
2023-12-07T14:01:09.610Z,1.02
2023-12-07T14:03:39.685Z,1.09
2023-12-07T14:06:15.245Z,1.17
2023-12-07T14:08:49.989Z,1.08
2023-12-07T14:11:17.858Z,1.03
2023-12-07T14:13:47.232Z,0.96
2023-12-07T14:16:20.136Z,1.03
2023-12-07T14:19:05.159Z,0.97
2023-12-07T14:21:52.842Z,0.99
2023-12-07T14:24:23.952Z,0.93
2023-12-07T14:26:52.084Z,0.94
2023-12-07T14:29:26.467Z,0.93
2023-12-07T14:31:55.911Z,0.92
2023-12-07T14:34:33.661Z,0.98
2023-12-07T14:37:04.405Z,1.00
2023-12-07T14:39:32.202Z,0.98
2023-12-07T14:41:59.992Z,0.97
2023-12-07T14:44:29.908Z,0.96
2023-12-07T14:46:58.413Z,0.93
2023-12-07T14:49:27.720Z,0.95
2023-12-07T14:52:00.459Z,0.94
2023-12-07T14:54:30.402Z,0.91
2023-12-07T14:56:59.060Z,0.91
2023-12-07T14:59:27.245Z,0.90
2023-12-07T15:01:55.177Z,0.91
2023-12-07T15:04:28.669Z,0.91
2023-12-07T15:07:04.949Z,0.90
2023-12-07T15:09:33.412Z,0.84
2023-12-07T15:12:01.242Z,0.86
2023-12-07T15:14:36.880Z,0.86
2023-12-07T15:17:07.742Z,0.92
2023-12-07T15:19:38.432Z,0.91
2023-12-07T15:22:08.790Z,0.90
2023-12-07T15:24:37.415Z,0.87
2023-12-07T15:27:06.405Z,0.92
2023-12-07T15:29:35.308Z,0.88
2023-12-07T15:32:04.120Z,0.94
2023-12-07T15:34:38.400Z,0.89
2023-12-07T15:37:12.739Z,0.86
2023-12-07T15:39:42.214Z,0.93
2023-12-07T15:42:10.443Z,0.91
2023-12-07T15:44:39.036Z,0.83
2023-12-07T15:47:07.168Z,0.81
2023-12-07T15:49:35.242Z,0.83
2023-12-07T15:52:04.345Z,0.83
2023-12-07T15:54:38.845Z,0.84
2023-12-07T15:57:10.647Z,0.90
2023-12-07T15:59:39.333Z,0.88
2023-12-07T16:02:07.687Z,0.85
2023-12-07T16:04:37.089Z,0.86
2023-12-07T16:07:09.533Z,0.88
2023-12-07T16:09:42.850Z,0.87
2023-12-07T16:12:11.792Z,0.92
2023-12-07T16:14:40.629Z,0.90
2023-12-07T16:17:09.874Z,0.94
2023-12-07T16:19:37.813Z,0.98
2023-12-07T16:22:07.112Z,1.02
2023-12-07T16:24:35.857Z,1.10
2023-12-07T16:27:08.128Z,1.07
2023-12-07T16:29:36.881Z,0.99
2023-12-07T16:32:05.600Z,0.96
2023-12-07T16:34:34.082Z,0.95
2023-12-07T16:37:01.915Z,0.99
2023-12-07T16:39:30.036Z,0.97
2023-12-07T16:42:02.075Z,0.98
2023-12-07T16:44:32.696Z,0.96
2023-12-07T16:47:00.898Z,0.87
2023-12-07T16:49:29.105Z,0.84
2023-12-07T16:51:56.954Z,0.88
2023-12-07T16:54:25.710Z,0.95
2023-12-07T16:56:53.772Z,0.97
2023-12-07T16:59:21.829Z,0.92
2023-12-07T17:01:52.661Z,0.89
2023-12-07T17:04:20.563Z,0.92
2023-12-07T17:06:56.026Z,0.94
2023-12-07T17:09:26.114Z,0.95
2023-12-07T17:11:54.374Z,0.92
2023-12-07T17:14:22.169Z,0.93
2023-12-07T17:16:52.028Z,0.98
2023-12-07T17:19:21.144Z,0.94
2023-12-07T17:21:51.462Z,0.91
2023-12-07T17:24:21.611Z,0.96
2023-12-07T17:26:53.083Z,0.92
2023-12-07T17:29:23.414Z,0.95
2023-12-07T17:31:52.872Z,1.05
2023-12-07T17:34:21.472Z,0.96
2023-12-07T17:36:50.124Z,1.00
2023-12-07T17:39:17.878Z,1.04
2023-12-07T17:41:45.708Z,1.07
2023-12-07T17:44:13.945Z,1.08
2023-12-07T17:46:41.716Z,1.00
2023-12-07T17:49:11.870Z,1.07
2023-12-07T17:51:40.013Z,1.07
2023-12-07T17:54:07.733Z,1.04
2023-12-07T17:56:35.672Z,1.02
2023-12-07T17:59:04.754Z,0.96
2023-12-07T18:01:31.442Z,0.96
2023-12-07T18:04:00.228Z,0.91
2023-12-07T18:06:29.891Z,0.94
2023-12-07T18:08:57.728Z,0.88
2023-12-07T18:11:25.972Z,0.89
2023-12-07T18:13:55.136Z,0.89
2023-12-07T18:16:23.426Z,0.88
2023-12-07T18:18:51.686Z,0.84
2023-12-07T18:21:19.917Z,0.78
2023-12-07T18:23:49.117Z,0.82
2023-12-07T18:26:17.472Z,0.78
2023-12-07T18:28:45.225Z,0.81
2023-12-07T18:31:14.635Z,0.73
2023-12-07T18:33:43.991Z,0.75
2023-12-07T18:36:11.924Z,0.75
2023-12-07T18:38:39.714Z,0.77
2023-12-07T18:41:09.288Z,0.78
2023-12-07T18:43:36.984Z,0.75
2023-12-07T18:46:06.312Z,0.75
2023-12-07T18:48:34.782Z,0.79
2023-12-07T18:51:04.221Z,0.75
2023-12-07T18:53:33.682Z,0.76
2023-12-07T18:56:01.536Z,0.77
2023-12-07T18:58:30.675Z,0.81
2023-12-07T19:00:59.969Z,0.82
2023-12-07T19:03:27.912Z,0.80
2023-12-07T19:05:55.759Z,0.76
2023-12-07T19:08:24.263Z,0.75
2023-12-07T19:10:51.994Z,0.73
2023-12-07T19:13:20.058Z,0.74
2023-12-07T19:15:50.329Z,0.74
2023-12-07T19:18:18.184Z,0.74
2023-12-07T19:20:46.466Z,0.74
2023-12-07T19:23:14.235Z,0.74
2023-12-07T19:25:41.951Z,0.76
2023-12-07T19:28:10.088Z,0.76
2023-12-07T19:30:37.899Z,0.73
2023-12-07T19:33:06.971Z,0.74
2023-12-07T19:35:35.146Z,0.71
2023-12-07T19:38:02.873Z,0.70
2023-12-07T19:40:30.610Z,0.69
2023-12-07T19:42:58.965Z,0.68
2023-12-07T19:45:26.685Z,0.71
2023-12-07T19:47:54.573Z,0.72
2023-12-07T19:50:24.308Z,0.73
2023-12-07T19:52:52.057Z,0.69
2023-12-07T19:55:20.085Z,0.71
2023-12-07T19:57:47.782Z,0.74
2023-12-07T20:00:18.790Z,0.74
2023-12-07T20:02:46.980Z,0.75
2023-12-07T20:05:14.759Z,0.76
2023-12-07T20:07:43.824Z,0.79
2023-12-07T20:10:12.003Z,0.77
2023-12-07T20:12:39.668Z,0.76
2023-12-07T20:15:09.997Z,0.79
2023-12-07T20:17:37.687Z,0.79
2023-12-07T20:20:06.531Z,0.77
2023-12-07T20:22:34.357Z,0.79
2023-12-07T20:25:03.660Z,0.78
2023-12-07T20:27:33.425Z,0.81
2023-12-07T20:30:01.421Z,0.81
2023-12-07T20:32:29.628Z,0.82
2023-12-07T20:34:57.893Z,0.80
2023-12-07T20:37:26.255Z,0.79
2023-12-07T20:39:54.031Z,0.80
2023-12-07T20:42:23.153Z,0.90
2023-12-07T20:44:50.889Z,0.84
2023-12-07T20:47:18.659Z,0.78
2023-12-07T20:49:47.151Z,0.76
2023-12-07T20:52:14.899Z,0.69
2023-12-07T20:54:42.683Z,0.70
2023-12-07T20:57:10.442Z,0.71
2023-12-07T20:59:39.501Z,0.71
2023-12-07T21:02:07.833Z,0.69
2023-12-07T21:04:35.931Z,0.69
2023-12-07T21:07:03.801Z,0.67
2023-12-07T21:09:31.581Z,0.69
2023-12-07T21:11:59.966Z,0.66
2023-12-07T21:14:27.797Z,0.70
2023-12-07T21:16:56.902Z,0.66
2023-12-07T21:19:28.895Z,0.63
2023-12-07T21:21:56.756Z,0.65
2023-12-07T21:24:24.551Z,0.63
2023-12-07T21:26:52.712Z,0.65
2023-12-07T21:29:20.821Z,0.62
2023-12-07T21:31:48.501Z,0.60
2023-12-07T21:34:18.243Z,0.61
2023-12-07T21:36:46.172Z,0.60
2023-12-07T21:39:13.888Z,0.62
2023-12-07T21:41:42.191Z,0.59
2023-12-07T21:44:09.934Z,0.54
2023-12-07T21:46:37.644Z,0.54
2023-12-07T21:49:05.838Z,0.54
2023-12-07T21:51:34.885Z,0.49
2023-12-07T21:54:02.671Z,0.49
2023-12-07T21:56:30.884Z,0.52
2023-12-07T21:58:58.597Z,0.51
2023-12-07T22:01:26.229Z,0.54
2023-12-07T22:03:54.444Z,0.50
2023-12-07T22:06:27.163Z,0.55
2023-12-07T22:08:56.873Z,0.53
2023-12-07T22:11:24.896Z,0.48
2023-12-07T22:13:52.699Z,0.45
2023-12-07T22:16:20.884Z,0.45
2023-12-07T22:18:48.706Z,0.44
2023-12-07T22:21:16.547Z,0.46
2023-12-07T22:23:46.077Z,0.44
2023-12-07T22:26:16.981Z,0.43
2023-12-07T22:28:44.752Z,0.41
2023-12-07T22:31:12.862Z,0.42
2023-12-07T22:33:40.816Z,0.42
2023-12-07T22:36:10.023Z,0.44
2023-12-07T22:38:37.791Z,0.46
2023-12-07T22:41:05.937Z,0.43
2023-12-07T22:43:36.296Z,0.42
2023-12-07T22:46:03.955Z,0.44
2023-12-07T22:48:31.744Z,0.45
2023-12-07T22:50:59.866Z,0.46
2023-12-07T22:53:27.602Z,0.47
2023-12-07T22:55:55.650Z,0.47
2023-12-07T22:58:23.417Z,0.45
2023-12-07T23:00:53.122Z,0.45
2023-12-07T23:03:21.203Z,0.43
2023-12-07T23:05:49.061Z,0.43
2023-12-07T23:08:16.799Z,0.42
2023-12-07T23:10:45.183Z,0.43
2023-12-07T23:13:12.928Z,0.41
2023-12-07T23:15:40.628Z,0.40
2023-12-07T23:18:10.572Z,0.39
2023-12-07T23:20:38.523Z,0.39
2023-12-07T23:23:06.252Z,0.41
2023-12-07T23:25:34.263Z,0.41
2023-12-07T23:28:01.958Z,0.43
2023-12-07T23:30:29.721Z,0.46
2023-12-07T23:32:57.896Z,0.43
2023-12-07T23:35:27.086Z,0.47
2023-12-07T23:37:54.758Z,0.47
2023-12-07T23:40:23.015Z,0.47
2023-12-07T23:42:50.776Z,0.48
2023-12-07T23:45:18.493Z,0.48
2023-12-07T23:47:46.958Z,0.48
2023-12-07T23:50:14.733Z,0.45
2023-12-07T23:52:44.224Z,0.48
2023-12-07T23:55:12.153Z,0.47
2023-12-07T23:57:39.855Z,0.45
